createdAt,value
2019-01-17T00:00:49.685Z,1.85
2019-01-17T00:03:22.386Z,1.30
2019-01-17T00:05:52.470Z,1.27
2019-01-17T00:08:28.687Z,1.40
2019-01-17T00:11:04.972Z,1.60
2019-01-17T00:13:37.721Z,1.15
2019-01-17T00:16:24.648Z,1.75
2019-01-17T00:19:00.641Z,1.20
2019-01-17T00:21:37.087Z,1.55
2019-01-17T00:24:13.047Z,1.30
2019-01-17T00:26:43.105Z,1.67
2019-01-17T00:29:28.829Z,1.40
2019-01-17T00:32:15.611Z,1.05
2019-01-17T00:34:51.638Z,1.10
2019-01-17T00:37:22.017Z,1.35
2019-01-17T00:40:00.638Z,1.40
2019-01-17T00:42:36.419Z,1.35
2019-01-17T00:45:25.753Z,0.72
2019-01-17T00:48:04.671Z,1.15
2019-01-17T00:50:43.501Z,1.00
2019-01-17T00:53:13.562Z,0.82
2019-01-17T00:56:02.380Z,1.10
2019-01-17T00:58:35.401Z,1.15
2019-01-17T01:01:08.140Z,0.90
2019-01-17T01:03:47.061Z,1.07
2019-01-17T01:06:20.394Z,1.07
2019-01-17T01:08:56.417Z,0.80
2019-01-17T01:11:26.842Z,1.00
2019-01-17T01:14:13.503Z,0.72
2019-01-17T01:16:52.852Z,0.68
2019-01-17T01:19:22.982Z,1.02
2019-01-17T01:21:53.327Z,1.05
2019-01-17T01:24:39.410Z,1.40
2019-01-17T01:27:18.661Z,1.22
2019-01-17T01:29:54.910Z,1.02
2019-01-17T01:32:25.279Z,1.22
2019-01-17T01:35:00.994Z,1.57
2019-01-17T01:37:45.909Z,1.35
2019-01-17T01:40:21.666Z,0.60
2019-01-17T01:43:00.181Z,0.90
2019-01-17T01:45:30.225Z,1.10
2019-01-17T01:48:16.975Z,1.37
2019-01-17T01:50:59.206Z,0.80
2019-01-17T01:53:27.624Z,1.00
2019-01-17T01:55:56.057Z,1.02
2019-01-17T01:58:24.499Z,1.00
2019-01-17T02:00:52.906Z,1.00
2019-01-17T02:03:21.355Z,1.05
2019-01-17T02:05:49.836Z,1.27
2019-01-17T02:08:18.249Z,0.90
2019-01-17T02:10:46.726Z,0.93
2019-01-17T02:13:15.447Z,1.30
2019-01-17T02:15:44.191Z,1.10
2019-01-17T02:18:12.600Z,1.37
2019-01-17T02:20:41.080Z,1.00
2019-01-17T02:23:09.775Z,1.10
2019-01-17T02:25:38.481Z,1.75
2019-01-17T02:28:06.930Z,1.30
2019-01-17T02:30:35.337Z,1.20
2019-01-17T02:33:04.124Z,1.50
2019-01-17T02:35:32.897Z,1.42
2019-01-17T02:38:01.346Z,1.27
2019-01-17T02:40:29.789Z,1.32
2019-01-17T02:42:58.275Z,1.15
2019-01-17T02:45:26.966Z,1.00
2019-01-17T02:47:55.404Z,0.98
2019-01-17T02:50:23.847Z,0.82
2019-01-17T02:52:52.280Z,1.10
2019-01-17T02:55:20.689Z,1.60
2019-01-17T02:57:49.101Z,1.00
2019-01-17T03:00:17.923Z,0.95
2019-01-17T03:02:46.599Z,1.27
2019-01-17T03:05:15.448Z,0.70
2019-01-17T03:07:43.985Z,1.07
2019-01-17T03:10:14.978Z,0.93
2019-01-17T03:12:43.382Z,1.05
2019-01-17T03:15:11.939Z,1.70
2019-01-17T03:17:40.358Z,1.00
2019-01-17T03:20:11.305Z,0.90
2019-01-17T03:22:39.731Z,1.67
2019-01-17T03:25:10.192Z,1.82
2019-01-17T03:27:38.678Z,1.22
2019-01-17T03:30:10.517Z,1.98
2019-01-17T03:32:38.977Z,2.00
2019-01-17T03:35:07.595Z,1.82
2019-01-17T03:37:36.087Z,2.00
2019-01-17T03:40:07.816Z,1.80
2019-01-17T03:42:36.541Z,1.83
2019-01-17T03:45:07.835Z,1.80
2019-01-17T03:47:36.603Z,1.95
2019-01-17T03:50:08.788Z,2.42
2019-01-17T03:52:37.279Z,3.15
2019-01-17T03:55:07.907Z,1.95
2019-01-17T03:57:36.325Z,1.90
2019-01-17T04:00:07.822Z,2.37
2019-01-17T04:02:36.252Z,2.43
2019-01-17T04:05:06.708Z,2.12
2019-01-17T04:07:35.121Z,2.17
2019-01-17T04:10:05.516Z,2.87
2019-01-17T04:12:33.930Z,2.20
2019-01-17T04:15:02.336Z,2.10
2019-01-17T04:17:30.773Z,1.90
2019-01-17T04:19:59.179Z,2.20
2019-01-17T04:22:27.613Z,1.93
2019-01-17T04:24:57.488Z,1.72
2019-01-17T04:27:26.341Z,2.42
2019-01-17T04:29:54.770Z,2.70
2019-01-17T04:32:23.466Z,1.82
2019-01-17T04:34:52.238Z,2.27
2019-01-17T04:37:20.686Z,2.57
2019-01-17T04:39:49.420Z,2.50
2019-01-17T04:42:17.870Z,1.93
2019-01-17T04:44:46.587Z,3.35
2019-01-17T04:47:15.043Z,3.30
2019-01-17T04:49:43.478Z,3.17
2019-01-17T04:52:11.884Z,2.20
2019-01-17T04:54:40.596Z,2.05
2019-01-17T04:57:09.124Z,2.42
2019-01-17T04:59:37.616Z,2.52
2019-01-17T05:02:06.029Z,2.15
2019-01-17T05:04:34.744Z,2.70
2019-01-17T05:07:03.201Z,2.20
2019-01-17T05:09:31.636Z,2.80
2019-01-17T05:12:00.036Z,2.08
2019-01-17T05:14:28.461Z,2.30
2019-01-17T05:16:56.957Z,2.05
2019-01-17T05:19:25.380Z,2.58
2019-01-17T05:21:54.105Z,2.55
2019-01-17T05:24:22.561Z,2.08
2019-01-17T05:26:51.049Z,2.60
2019-01-17T05:29:19.469Z,2.12
2019-01-17T05:31:47.893Z,2.15
2019-01-17T05:34:16.602Z,2.00
2019-01-17T05:36:45.341Z,1.95
2019-01-17T05:39:13.759Z,3.22
2019-01-17T05:41:42.506Z,2.40
2019-01-17T05:44:10.921Z,2.17
2019-01-17T05:46:39.345Z,1.90
2019-01-17T05:49:07.762Z,2.90
2019-01-17T05:51:36.189Z,2.80
2019-01-17T05:54:04.674Z,3.20
2019-01-17T05:56:33.107Z,2.50
2019-01-17T05:59:01.520Z,2.42
2019-01-17T06:01:29.945Z,2.35
2019-01-17T06:03:58.359Z,2.70
2019-01-17T06:06:32.864Z,2.90
2019-01-17T06:08:59.647Z,2.83
2019-01-17T06:11:28.126Z,2.30
2019-01-17T06:13:56.813Z,2.15
2019-01-17T06:16:25.276Z,2.40
2019-01-17T06:18:54.113Z,4.10
2019-01-17T06:21:22.617Z,2.45
2019-01-17T06:23:51.342Z,3.23
2019-01-17T06:26:20.038Z,3.25
2019-01-17T06:28:48.496Z,2.55
2019-01-17T06:31:16.913Z,2.55
2019-01-17T06:33:45.341Z,3.05
2019-01-17T06:36:13.761Z,2.65
2019-01-17T06:38:42.473Z,2.70
2019-01-17T06:41:10.884Z,2.92
2019-01-17T06:43:39.614Z,2.62
2019-01-17T06:46:08.073Z,2.65
2019-01-17T06:48:36.498Z,3.52
2019-01-17T06:51:04.908Z,2.90
2019-01-17T06:53:33.333Z,3.63
2019-01-17T06:56:02.017Z,3.37
2019-01-17T06:58:33.746Z,2.87
2019-01-17T07:01:02.233Z,2.80
2019-01-17T07:03:30.673Z,2.70
2019-01-17T07:05:59.309Z,2.70
2019-01-17T07:08:28.150Z,2.62
2019-01-17T07:10:56.568Z,3.30
2019-01-17T07:13:24.997Z,3.45
2019-01-17T07:15:53.665Z,3.10
2019-01-17T07:18:22.129Z,3.20
2019-01-17T07:20:50.552Z,3.00
2019-01-17T07:23:18.978Z,2.87
2019-01-17T07:25:47.393Z,2.92
2019-01-17T07:28:15.822Z,2.80
2019-01-17T07:30:44.525Z,2.50
2019-01-17T07:33:12.988Z,2.60
2019-01-17T07:35:41.403Z,2.27
2019-01-17T07:38:10.072Z,2.50
2019-01-17T07:40:38.771Z,2.10
2019-01-17T07:43:07.493Z,2.33
2019-01-17T07:45:36.167Z,2.45
2019-01-17T07:48:04.956Z,2.27
2019-01-17T07:50:33.364Z,2.98
2019-01-17T07:53:01.792Z,2.35
2019-01-17T07:55:30.210Z,2.33
2019-01-17T07:57:58.633Z,2.27
2019-01-17T08:00:27.052Z,2.00
2019-01-17T08:02:55.468Z,2.50
2019-01-17T08:05:23.893Z,2.22
2019-01-17T08:07:52.567Z,2.80
2019-01-17T08:10:21.040Z,1.73
2019-01-17T08:12:49.717Z,2.10
2019-01-17T08:15:18.770Z,1.98
2019-01-17T08:17:47.503Z,1.80
2019-01-17T08:20:19.222Z,1.47
2019-01-17T08:22:47.702Z,1.40
2019-01-17T08:25:16.197Z,1.83
2019-01-17T08:27:44.857Z,2.17
2019-01-17T08:30:15.913Z,1.93
2019-01-17T08:32:44.317Z,2.20
2019-01-17T08:35:13.032Z,1.70
2019-01-17T08:37:41.483Z,2.10
2019-01-17T08:40:12.973Z,1.90
2019-01-17T08:42:41.428Z,1.63
2019-01-17T08:45:10.686Z,2.70
2019-01-17T08:47:39.088Z,1.47
2019-01-17T08:50:10.809Z,2.23
2019-01-17T08:52:39.221Z,1.40
2019-01-17T08:55:08.040Z,2.10
2019-01-17T08:57:36.761Z,1.50
2019-01-17T09:00:11.410Z,2.20
2019-01-17T09:02:39.863Z,1.60
2019-01-17T09:05:09.764Z,1.40
2019-01-17T09:07:38.173Z,1.20
2019-01-17T09:10:09.669Z,1.60
2019-01-17T09:12:38.069Z,1.60
2019-01-17T09:15:09.688Z,1.50
2019-01-17T09:17:38.342Z,1.20
2019-01-17T09:20:09.973Z,1.90
2019-01-17T09:22:38.373Z,0.80
2019-01-17T09:25:09.641Z,1.10
2019-01-17T09:27:38.054Z,1.70
2019-01-17T09:30:09.551Z,0.77
2019-01-17T09:32:37.953Z,1.23
2019-01-17T09:35:09.313Z,1.10
2019-01-17T09:37:37.786Z,1.37
2019-01-17T09:40:09.621Z,1.13
2019-01-17T09:42:38.614Z,1.00
2019-01-17T09:45:08.061Z,1.23
2019-01-17T09:47:36.537Z,2.43
2019-01-17T09:50:08.029Z,0.93
2019-01-17T09:52:36.697Z,1.77
2019-01-17T09:55:05.651Z,1.00
2019-01-17T09:57:34.091Z,0.90
2019-01-17T10:00:03.222Z,1.20
2019-01-17T10:02:31.640Z,1.47
2019-01-17T10:05:00.374Z,1.20
2019-01-17T10:07:28.794Z,1.20
2019-01-17T10:09:57.196Z,0.90
2019-01-17T10:12:25.632Z,1.03
2019-01-17T10:14:54.041Z,0.80
2019-01-17T10:17:25.542Z,1.10
2019-01-17T10:20:20.993Z,1.50
2019-01-17T10:23:03.812Z,1.97
2019-01-17T10:25:47.068Z,1.10
2019-01-17T10:28:51.587Z,0.70
2019-01-17T10:31:31.178Z,0.70
2019-01-17T10:34:08.641Z,0.93
2019-01-17T10:36:59.721Z,1.07
2019-01-17T10:40:05.803Z,1.23
2019-01-17T10:42:46.481Z,0.83
2019-01-17T10:45:20.777Z,0.93
2019-01-17T10:48:02.062Z,0.73
2019-01-17T10:50:39.477Z,1.47
2019-01-17T10:53:16.922Z,0.90
2019-01-17T10:55:54.093Z,0.87
2019-01-17T10:58:31.378Z,1.20
2019-01-17T11:01:20.777Z,1.10
2019-01-17T11:04:10.369Z,1.10
2019-01-17T11:06:56.660Z,1.80
2019-01-17T11:09:33.980Z,1.07
2019-01-17T11:12:23.552Z,1.20
2019-01-17T11:14:55.028Z,1.40
2019-01-17T11:17:32.696Z,1.30
2019-01-17T11:20:15.381Z,1.20
2019-01-17T11:22:49.690Z,0.93
2019-01-17T11:25:27.174Z,1.73
2019-01-17T11:28:15.457Z,2.70
2019-01-17T11:31:06.665Z,1.60
2019-01-17T11:33:41.080Z,1.47
2019-01-17T11:36:30.530Z,1.60
2019-01-17T11:39:18.578Z,2.20
2019-01-17T11:42:07.981Z,1.40
2019-01-17T11:44:51.233Z,1.63
2019-01-17T11:47:37.814Z,1.53
2019-01-17T11:50:23.956Z,1.37
2019-01-17T11:53:10.121Z,1.30
2019-01-17T11:55:56.551Z,1.63
2019-01-17T11:59:00.432Z,1.53
2019-01-17T12:01:59.173Z,1.50
2019-01-17T12:04:33.638Z,1.83
2019-01-17T12:07:10.295Z,1.90
2019-01-17T12:09:38.797Z,1.37
2019-01-17T12:12:07.206Z,1.43
2019-01-17T12:14:35.636Z,1.53
2019-01-17T12:17:04.588Z,1.20
2019-01-17T12:19:33.297Z,1.60
2019-01-17T12:22:01.705Z,1.43
2019-01-17T12:24:30.126Z,1.53
2019-01-17T12:26:58.545Z,1.90
2019-01-17T12:29:26.976Z,2.00
2019-01-17T12:31:55.385Z,1.20
2019-01-17T12:34:24.021Z,2.00
2019-01-17T12:36:52.469Z,1.40
2019-01-17T12:39:20.884Z,1.90
2019-01-17T12:41:49.296Z,1.50
2019-01-17T12:44:17.932Z,1.90
2019-01-17T12:46:46.625Z,1.80
2019-01-17T12:49:15.049Z,1.50
2019-01-17T12:51:43.713Z,1.87
2019-01-17T12:54:12.373Z,1.40
2019-01-17T12:56:41.100Z,2.33
2019-01-17T12:59:09.829Z,1.97
2019-01-17T13:01:38.329Z,1.50
2019-01-17T13:04:06.990Z,1.60
2019-01-17T13:06:35.422Z,1.93
2019-01-17T13:09:05.744Z,1.87
2019-01-17T13:11:34.165Z,1.50
2019-01-17T13:14:02.598Z,1.50
2019-01-17T13:16:31.037Z,1.53
2019-01-17T13:18:59.722Z,1.33
2019-01-17T13:21:28.148Z,2.10
2019-01-17T13:23:56.573Z,1.53
2019-01-17T13:26:24.989Z,2.37
2019-01-17T13:28:53.403Z,1.80
2019-01-17T13:31:22.056Z,2.10
2019-01-17T13:33:50.514Z,1.73
2019-01-17T13:36:19.183Z,2.23
2019-01-17T13:38:47.597Z,2.47
2019-01-17T13:41:16.013Z,1.70
2019-01-17T13:43:44.425Z,1.77
2019-01-17T13:46:12.851Z,2.50
2019-01-17T13:48:41.301Z,1.33
2019-01-17T13:51:09.970Z,1.53
2019-01-17T13:53:39.697Z,1.20
2019-01-17T13:56:08.198Z,0.80
2019-01-17T13:58:36.624Z,1.47
2019-01-17T14:01:05.169Z,1.97
2019-01-17T14:03:33.925Z,1.40
2019-01-17T14:06:02.470Z,1.30
2019-01-17T14:08:31.172Z,1.10
2019-01-17T14:10:59.614Z,0.80
2019-01-17T14:13:28.037Z,0.87
2019-01-17T14:15:56.723Z,0.70
2019-01-17T14:18:27.961Z,0.90
2019-01-17T14:20:55.542Z,0.83
2019-01-17T14:23:23.971Z,0.60
2019-01-17T14:25:52.406Z,0.60
2019-01-17T14:28:20.838Z,0.80
2019-01-17T14:30:49.362Z,0.90
2019-01-17T14:33:18.585Z,0.60
2019-01-17T14:35:46.996Z,0.77
2019-01-17T14:38:15.455Z,0.70
2019-01-17T14:40:44.192Z,0.70
2019-01-17T14:43:12.696Z,0.90
2019-01-17T14:45:41.174Z,0.60
2019-01-17T14:48:09.616Z,0.50
2019-01-17T14:50:38.108Z,0.53
2019-01-17T14:53:06.573Z,0.50
2019-01-17T14:55:35.053Z,0.40
2019-01-17T14:58:03.555Z,0.50
2019-01-17T15:00:32.819Z,0.47
2019-01-17T15:03:01.812Z,0.50
2019-01-17T15:05:30.342Z,0.60
2019-01-17T15:07:58.753Z,0.40
2019-01-17T15:10:30.307Z,0.43
2019-01-17T15:12:58.802Z,0.40
2019-01-17T15:15:27.612Z,0.50
2019-01-17T15:17:56.157Z,0.70
2019-01-17T15:20:24.636Z,0.50
2019-01-17T15:22:53.431Z,0.47
2019-01-17T15:25:22.277Z,0.60
2019-01-17T15:27:50.912Z,0.43
2019-01-17T15:30:24.553Z,0.43
2019-01-17T15:32:53.205Z,0.70
2019-01-17T15:35:21.643Z,0.57
2019-01-17T15:37:50.055Z,0.60
2019-01-17T15:40:24.166Z,0.60
2019-01-17T15:42:52.645Z,0.50
2019-01-17T15:45:21.124Z,0.60
2019-01-17T15:47:49.550Z,0.50
2019-01-17T15:50:19.657Z,0.70
2019-01-17T15:52:48.139Z,0.80
2019-01-17T15:55:17.494Z,0.60
2019-01-17T15:57:46.208Z,0.70
2019-01-17T16:00:17.994Z,0.60
2019-01-17T16:02:46.499Z,1.10
2019-01-17T16:05:16.527Z,0.70
2019-01-17T16:07:44.957Z,0.90
2019-01-17T16:10:16.899Z,0.60
2019-01-17T16:12:45.355Z,0.67
2019-01-17T16:15:16.983Z,0.50
2019-01-17T16:17:45.675Z,0.90
2019-01-17T16:20:16.166Z,0.60
2019-01-17T16:22:45.087Z,0.60
2019-01-17T16:25:15.332Z,0.80
2019-01-17T16:27:44.241Z,0.60
2019-01-17T16:30:20.902Z,0.70
2019-01-17T16:32:49.433Z,0.80
2019-01-17T16:35:17.862Z,0.60
2019-01-17T16:37:46.513Z,0.60
2019-01-17T16:40:15.328Z,0.60
2019-01-17T16:42:44.022Z,0.55
2019-01-17T16:45:17.446Z,0.62
2019-01-17T16:47:45.874Z,0.87
2019-01-17T16:50:16.544Z,1.07
2019-01-17T16:52:45.406Z,0.80
2019-01-17T16:55:14.656Z,0.50
2019-01-17T16:57:48.735Z,0.90
2019-01-17T17:00:19.177Z,0.80
2019-01-17T17:02:47.617Z,0.97
2019-01-17T17:05:16.249Z,0.57
2019-01-17T17:07:44.910Z,0.87
2019-01-17T17:10:15.241Z,0.73
2019-01-17T17:12:43.661Z,0.70
2019-01-17T17:15:12.234Z,0.50
2019-01-17T17:17:40.645Z,0.80
2019-01-17T17:20:15.256Z,0.53
2019-01-17T17:22:43.972Z,0.93
2019-01-17T17:25:12.499Z,0.57
2019-01-17T17:27:41.009Z,0.47
2019-01-17T17:30:12.783Z,0.80
2019-01-17T17:32:41.233Z,0.73
2019-01-17T17:35:09.731Z,0.70
2019-01-17T17:37:57.814Z,0.50
2019-01-17T17:40:28.073Z,0.70
2019-01-17T17:42:56.639Z,0.50
2019-01-17T17:45:25.054Z,0.70
2019-01-17T17:47:53.717Z,0.50
2019-01-17T17:50:22.893Z,0.72
2019-01-17T17:52:51.488Z,0.60
2019-01-17T17:55:20.553Z,0.60
2019-01-17T17:57:48.973Z,0.70
2019-01-17T18:00:27.702Z,0.85
2019-01-17T18:02:56.182Z,0.65
2019-01-17T18:05:24.685Z,0.70
2019-01-17T18:07:53.173Z,0.80
2019-01-17T18:10:21.602Z,0.57
2019-01-17T18:12:50.019Z,0.60
2019-01-17T18:15:19.439Z,0.80
2019-01-17T18:17:48.251Z,0.98
2019-01-17T18:20:17.762Z,0.80
2019-01-17T18:22:46.265Z,0.60
2019-01-17T18:25:14.791Z,0.57
2019-01-17T18:27:43.610Z,0.70
2019-01-17T18:30:18.169Z,1.70
2019-01-17T18:32:46.592Z,0.80
2019-01-17T18:35:15.577Z,0.93
2019-01-17T18:37:44.101Z,0.80
2019-01-17T18:40:20.338Z,0.75
2019-01-17T18:42:48.905Z,0.65
2019-01-17T18:45:25.586Z,1.10
2019-01-17T18:47:54.489Z,0.80
2019-01-17T18:50:34.387Z,0.95
2019-01-17T18:53:03.270Z,0.80
2019-01-17T18:55:31.835Z,0.78
2019-01-17T18:58:00.469Z,0.88
2019-01-17T19:00:30.682Z,0.80
2019-01-17T19:02:59.451Z,0.80
2019-01-17T19:05:28.290Z,1.50
2019-01-17T19:07:56.745Z,0.80
2019-01-17T19:10:25.622Z,0.87
2019-01-17T19:12:54.360Z,0.80
2019-01-17T19:15:28.365Z,0.70
2019-01-17T19:17:57.122Z,0.93
2019-01-17T19:20:25.594Z,0.60
2019-01-17T19:22:54.005Z,0.50
2019-01-17T19:25:22.795Z,0.60
2019-01-17T19:27:51.311Z,0.70
2019-01-17T19:30:24.875Z,0.70
2019-01-17T19:32:53.453Z,0.70
2019-01-17T19:35:21.948Z,1.25
2019-01-17T19:37:50.736Z,0.93
2019-01-17T19:40:27.768Z,0.90
2019-01-17T19:42:56.466Z,0.68
2019-01-17T19:45:25.083Z,0.57
2019-01-17T19:47:53.738Z,0.70
2019-01-17T19:50:30.517Z,0.60
2019-01-17T19:52:59.048Z,1.20
2019-01-17T19:55:27.730Z,0.80
2019-01-17T19:57:56.149Z,0.82
2019-01-17T20:00:24.650Z,0.90
2019-01-17T20:02:53.137Z,1.15
2019-01-17T20:05:24.672Z,0.93
2019-01-17T20:07:53.382Z,0.68
2019-01-17T20:10:27.261Z,0.70
2019-01-17T20:12:55.744Z,0.55
2019-01-17T20:15:24.241Z,0.80
2019-01-17T20:17:52.658Z,0.68
2019-01-17T20:20:21.217Z,0.70
2019-01-17T20:22:49.649Z,0.70
2019-01-17T20:25:18.221Z,0.50
2019-01-17T20:27:47.191Z,0.60
2019-01-17T20:30:18.740Z,0.72
2019-01-17T20:32:47.546Z,0.53
2019-01-17T20:35:16.345Z,0.57
2019-01-17T20:37:45.134Z,0.70
2019-01-17T20:40:16.665Z,0.60
2019-01-17T20:42:45.079Z,0.90
2019-01-17T20:45:14.053Z,0.60
2019-01-17T20:47:42.581Z,0.78
2019-01-17T20:50:16.944Z,0.60
2019-01-17T20:52:45.368Z,0.75
2019-01-17T20:55:14.081Z,0.85
2019-01-17T20:57:44.314Z,0.85
2019-01-17T21:00:21.803Z,0.50
2019-01-17T21:02:52.918Z,0.50
2019-01-17T21:05:21.784Z,0.88
2019-01-17T21:07:50.253Z,0.60
2019-01-17T21:10:19.073Z,1.00
2019-01-17T21:12:47.606Z,0.50
2019-01-17T21:15:16.169Z,0.60
2019-01-17T21:17:44.964Z,0.60
2019-01-17T21:20:14.672Z,0.80
2019-01-17T21:22:43.092Z,0.50
2019-01-17T21:25:14.512Z,0.75
2019-01-17T21:27:42.944Z,0.70
2019-01-17T21:30:14.823Z,0.60
2019-01-17T21:32:43.474Z,0.60
2019-01-17T21:35:12.727Z,0.78
2019-01-17T21:37:41.149Z,0.60
2019-01-17T21:40:12.950Z,0.78
2019-01-17T21:42:41.375Z,0.68
2019-01-17T21:45:12.734Z,0.70
2019-01-17T21:47:41.424Z,0.65
2019-01-17T21:50:15.613Z,0.70
2019-01-17T21:52:44.028Z,0.80
2019-01-17T21:55:12.513Z,0.62
2019-01-17T21:57:41.195Z,0.85
2019-01-17T22:00:20.861Z,0.60
2019-01-17T22:02:49.285Z,0.87
2019-01-17T22:05:17.700Z,0.50
2019-01-17T22:07:46.389Z,0.98
2019-01-17T22:10:16.480Z,0.68
2019-01-17T22:12:45.077Z,0.65
2019-01-17T22:15:24.238Z,0.60
2019-01-17T22:17:53.201Z,0.80
2019-01-17T22:20:21.625Z,0.50
2019-01-17T22:22:50.127Z,0.90
2019-01-17T22:25:20.275Z,0.90
2019-01-17T22:27:50.986Z,1.32
2019-01-17T22:30:24.531Z,0.93
2019-01-17T22:32:53.213Z,1.05
2019-01-17T22:35:23.192Z,0.62
2019-01-17T22:37:51.613Z,0.98
2019-01-17T22:40:20.323Z,0.80
2019-01-17T22:42:48.837Z,1.02
2019-01-17T22:45:22.772Z,0.75
2019-01-17T22:47:51.182Z,0.72
2019-01-17T22:50:20.494Z,1.60
2019-01-17T22:52:50.340Z,0.90
2019-01-17T22:55:18.834Z,0.80
2019-01-17T22:57:47.530Z,0.80
2019-01-17T23:00:50.365Z,0.75
2019-01-17T23:03:20.921Z,1.00
2019-01-17T23:05:49.405Z,0.85
2019-01-17T23:08:18.077Z,1.32
2019-01-17T23:10:46.493Z,0.80
2019-01-17T23:13:14.899Z,0.72
2019-01-17T23:15:43.391Z,0.75
2019-01-17T23:18:12.052Z,0.70
2019-01-17T23:20:40.468Z,0.90
2019-01-17T23:23:08.946Z,0.55
2019-01-17T23:25:37.444Z,0.90
2019-01-17T23:28:05.857Z,0.88
2019-01-17T23:30:34.581Z,1.02
2019-01-17T23:33:02.996Z,0.85
2019-01-17T23:35:31.421Z,0.62
2019-01-17T23:37:59.832Z,1.00
2019-01-17T23:40:28.251Z,0.93
2019-01-17T23:42:56.661Z,0.90
2019-01-17T23:45:25.128Z,0.80
2019-01-17T23:47:53.569Z,1.30
2019-01-17T23:50:21.988Z,0.70
2019-01-17T23:52:50.408Z,1.20
2019-01-17T23:55:19.064Z,0.75
2019-01-17T23:57:47.786Z,0.93
